Time;durP1;ratioP1;P1;durP2;ratioP2;P2;SDS_P1;SDS_P2;PMS_P1;PMS_P2;Temp;Humidity;BMP_temperature;BMP_pressure;BME280_temperature;BME280_humidity;BME280_pressure;Samples;Min_cycle;Max_cycle;Signal;HPM_P1;HPM_P2
2021/12/18 00:00:37;;;;;;;;;;;10.30;99.90;;;;;;4952907;28;20497;-72
2021/12/18 00:03:04;;;;;;;;;;;10.30;99.90;;;;;;4953445;28;19910;-74
2021/12/18 00:05:29;;;;;;;;;;;10.40;99.90;;;;;;4952835;28;19937;-73
2021/12/18 00:07:55;;;;;;;;;;;10.50;99.90;;;;;;4952869;28;19918;-73
2021/12/18 00:10:23;;;;;;;;;;;10.50;99.90;;;;;;4951770;28;19921;-74
2021/12/18 00:12:49;;;;;;;;;;;10.60;99.90;;;;;;4952446;28;19948;-73
2021/12/18 00:15:18;;;;;;;;;;;10.60;99.90;;;;;;4951635;28;19929;-73
2021/12/18 00:17:43;;;;;;;;;;;10.60;99.90;;;;;;4952700;29;19906;-73
2021/12/18 00:20:09;;;;;;;;;;;10.70;99.90;;;;;;4935378;29;19973;-73
2021/12/18 00:22:35;;;;;;;;;;;10.50;99.90;;;;;;4952813;28;19921;-73
2021/12/18 00:25:01;;;;;;;;;;;10.40;99.90;;;;;;4952725;28;19977;-73
2021/12/18 00:27:26;;;;;;;;;;;10.50;99.90;;;;;;4952659;28;19978;-74
2021/12/18 00:29:51;;;;;;;;;;;10.40;99.90;;;;;;4953224;29;19907;-75
2021/12/18 00:32:17;;;;;;;;;;;10.40;99.90;;;;;;4952623;28;20233;-74
2021/12/18 00:34:43;;;;;;;;;;;10.50;99.90;;;;;;4952549;28;19968;-74
2021/12/18 00:37:09;;;;;;;;;;;10.40;99.90;;;;;;4952652;28;19911;-74
2021/12/18 00:39:39;;;;;;;;;;;10.40;99.90;;;;;;4951551;28;19914;-74
2021/12/18 00:42:20;;;;;;;;;;;10.40;99.90;;;;;;4952532;28;20066;-74
2021/12/18 00:44:46;;;;;;;;;;;10.50;99.90;;;;;;4952941;29;19898;-74
2021/12/18 00:47:11;;;;;;;;;;;10.50;99.90;;;;;;4952558;29;19910;-74
2021/12/18 00:49:37;;;;;;;;;;;10.50;99.90;;;;;;4952323;28;20155;-73
2021/12/18 00:52:03;;;;;;;;;;;10.50;99.90;;;;;;4952441;29;20057;-73
2021/12/18 00:54:29;;;;;;;;;;;10.50;99.90;;;;;;4952199;28;20264;-73
2021/12/18 00:56:54;;;;;;;;;;;10.50;99.90;;;;;;4952841;29;19918;-72
2021/12/18 00:59:19;;;;;;;;;;;10.40;99.90;;;;;;4952540;28;20255;-74
2021/12/18 01:01:46;;;;;;;;;;;10.40;99.90;;;;;;4952340;29;19910;-73
2021/12/18 01:04:12;;;;;;;;;;;10.40;99.90;;;;;;4951175;28;19911;-73
2021/12/18 01:06:37;;;;;;;;;;;10.50;99.90;;;;;;4952265;28;20021;-73
2021/12/18 01:09:03;;;;;;;;;;;10.40;99.90;;;;;;4952909;29;19973;-72
2021/12/18 01:11:42;;;;;;;;;;;10.30;99.90;;;;;;4952274;28;20350;-74
2021/12/18 01:24:47;;;;;;;;;;;10.20;99.90;;;;;;4952684;28;19997;-74
2021/12/18 01:27:12;;;;;;;;;;;10.30;99.90;;;;;;4955583;28;20017;-74
2021/12/18 01:29:38;;;;;;;;;;;10.30;99.90;;;;;;4939038;29;19902;-73
2021/12/18 01:32:04;;;;;;;;;;;10.30;99.90;;;;;;4955562;28;19958;-74
2021/12/18 01:34:29;;;;;;;;;;;10.30;99.90;;;;;;4938409;29;20016;-74
2021/12/18 01:36:55;;;;;;;;;;;10.20;99.90;;;;;;4955462;28;19972;-73
2021/12/18 01:39:20;;;;;;;;;;;10.20;99.90;;;;;;4954237;28;19917;-73
2021/12/18 01:51:14;;;;;;;;;;;10.20;99.90;;;;;;4955465;28;20324;-73
2021/12/18 01:52:35;;;;;;;;;;;10.20;99.90;;;;;;4944297;29;19910;-73
2021/12/18 01:55:01;;;;;;;;;;;10.10;99.90;;;;;;4954946;28;19944;-73
2021/12/18 01:57:27;;;;;;;;;;;10.10;99.90;;;;;;4953998;28;19993;-73
2021/12/18 01:59:52;;;;;;;;;;;10.20;99.90;;;;;;4955617;29;20238;-73
2021/12/18 02:02:18;;;;;;;;;;;10.30;99.90;;;;;;4938053;29;19915;-73
2021/12/18 02:04:44;;;;;;;;;;;10.30;99.90;;;;;;4954812;28;19938;-73
2021/12/18 02:07:09;;;;;;;;;;;10.20;99.90;;;;;;4954724;28;19915;-75
2021/12/18 02:12:57;;;;;;;;;;;10.10;99.90;;;;;;4914231;29;20386;-74
2021/12/18 02:20:53;;;;;;;;;;;10.00;99.90;;;;;;4955482;29;20394;-74
2021/12/18 02:23:18;;;;;;;;;;;9.90;99.90;;;;;;4954617;28;19915;-73
2021/12/18 02:25:45;;;;;;;;;;;10.00;99.90;;;;;;4954580;28;20339;-75
2021/12/18 02:28:17;;;;;;;;;;;10.00;99.90;;;;;;4954725;28;19910;-74
2021/12/18 02:30:43;;;;;;;;;;;10.00;99.90;;;;;;4954580;28;19985;-73
2021/12/18 02:33:09;;;;;;;;;;;9.80;99.90;;;;;;4954474;28;19906;-73
2021/12/18 02:35:40;;;;;;;;;;;9.90;99.90;;;;;;4948603;28;20354;-73
2021/12/18 02:38:11;;;;;;;;;;;9.90;99.90;;;;;;4992391;28;19909;-74
2021/12/18 02:43:25;;;;;;;;;;;9.80;99.90;;;;;;4993100;28;19953;-75
2021/12/18 02:45:54;;;;;;;;;;;9.90;99.90;;;;;;4975621;28;19910;-74
2021/12/18 02:48:20;;;;;;;;;;;10.00;99.90;;;;;;4992742;28;19909;-74
2021/12/18 02:50:46;;;;;;;;;;;10.10;99.90;;;;;;4975701;28;19927;-74
2021/12/18 02:53:11;;;;;;;;;;;10.00;99.90;;;;;;4992431;28;20360;-74
2021/12/18 02:55:37;;;;;;;;;;;9.90;99.90;;;;;;4992636;28;19924;-74
2021/12/18 02:58:02;;;;;;;;;;;10.00;99.90;;;;;;4975689;28;20371;-74
2021/12/18 03:00:29;;;;;;;;;;;10.00;99.90;;;;;;4992574;28;20323;-74
2021/12/18 03:02:55;;;;;;;;;;;9.90;99.90;;;;;;4992889;28;20331;-74
2021/12/18 03:05:31;;;;;;;;;;;9.80;99.90;;;;;;4992141;28;19928;-75
2021/12/18 03:08:07;;;;;;;;;;;9.90;99.90;;;;;;4992285;28;19932;-74
2021/12/18 03:22:19;;;;;;;;;;;9.90;99.90;;;;;;4992473;28;19992;-75
2021/12/18 03:24:24;;;;;;;;;;;10.00;99.90;;;;;;4992041;28;19972;-75
2021/12/18 03:26:49;;;;;;;;;;;10.00;99.90;;;;;;4992651;28;19908;-75
2021/12/18 03:29:15;;;;;;;;;;;10.10;99.90;;;;;;4975065;28;19914;-74
2021/12/18 03:31:40;;;;;;;;;;;10.00;99.90;;;;;;4992196;28;20308;-74
2021/12/18 03:34:06;;;;;;;;;;;10.10;99.90;;;;;;4992014;28;19909;-74
2021/12/18 03:36:31;;;;;;;;;;;10.00;99.90;;;;;;4991927;28;20239;-74
2021/12/18 03:38:57;;;;;;;;;;;10.00;99.90;;;;;;4992643;28;19914;-74
2021/12/18 03:41:22;;;;;;;;;;;10.00;99.90;;;;;;4992196;28;19914;-74
2021/12/18 03:43:48;;;;;;;;;;;10.00;99.90;;;;;;4992108;28;19945;-73
2021/12/18 03:46:13;;;;;;;;;;;10.00;99.90;;;;;;4991862;28;19913;-74
2021/12/18 03:48:39;;;;;;;;;;;10.00;99.90;;;;;;4974732;28;19914;-75
2021/12/18 03:51:04;;;;;;;;;;;10.10;99.90;;;;;;4992106;28;19967;-75
2021/12/18 03:53:30;;;;;;;;;;;10.10;99.90;;;;;;4991844;28;19920;-75
2021/12/18 03:55:56;;;;;;;;;;;10.10;99.90;;;;;;4974863;28;19965;-75
2021/12/18 03:58:21;;;;;;;;;;;10.00;99.90;;;;;;4991697;28;19910;-74
2021/12/18 04:00:47;;;;;;;;;;;10.10;99.90;;;;;;4991641;28;20229;-73
2021/12/18 04:03:12;;;;;;;;;;;10.00;99.90;;;;;;4991325;28;19910;-75
2021/12/18 04:05:38;;;;;;;;;;;10.00;99.90;;;;;;4991893;28;20336;-75
2021/12/18 04:08:10;;;;;;;;;;;9.90;99.90;;;;;;4991530;28;20024;-74
2021/12/18 04:10:37;;;;;;;;;;;9.80;99.90;;;;;;4974301;28;20335;-75
2021/12/18 04:13:03;;;;;;;;;;;9.90;99.90;;;;;;4991504;28;20247;-74
2021/12/18 04:15:29;;;;;;;;;;;9.90;99.90;;;;;;4991281;28;19928;-74
2021/12/18 04:17:55;;;;;;;;;;;10.00;99.90;;;;;;4991824;28;20279;-73
2021/12/18 04:20:20;;;;;;;;;;;10.00;99.90;;;;;;4991515;28;20463;-74
2021/12/18 04:22:46;;;;;;;;;;;9.90;99.90;;;;;;4991156;28;20298;-73
2021/12/18 04:25:11;;;;;;;;;;;10.00;99.90;;;;;;4991461;28;19910;-74
2021/12/18 04:27:37;;;;;;;;;;;10.00;99.90;;;;;;4991421;28;19964;-74
2021/12/18 04:30:02;;;;;;;;;;;10.00;99.90;;;;;;4991979;28;20013;-74
2021/12/18 04:32:28;;;;;;;;;;;9.80;99.90;;;;;;4991221;28;20307;-74
2021/12/18 04:34:53;;;;;;;;;;;9.70;99.90;;;;;;4974060;28;19920;-74
2021/12/18 04:37:20;;;;;;;;;;;9.70;99.90;;;;;;4991084;28;19913;-74
2021/12/18 04:39:45;;;;;;;;;;;9.80;99.90;;;;;;4991150;28;19925;-74
2021/12/18 04:42:11;;;;;;;;;;;9.60;99.90;;;;;;4991404;28;19905;-74
2021/12/18 04:44:36;;;;;;;;;;;9.60;99.90;;;;;;4991981;28;19960;-74
2021/12/18 04:47:02;;;;;;;;;;;9.70;99.90;;;;;;4973915;28;19917;-73
2021/12/18 04:49:27;;;;;;;;;;;9.80;99.90;;;;;;4973739;28;19910;-74
2021/12/18 04:51:53;;;;;;;;;;;9.70;99.90;;;;;;4991253;28;19952;-74
2021/12/18 04:54:18;;;;;;;;;;;9.70;99.90;;;;;;4991210;28;19906;-74
2021/12/18 04:56:44;;;;;;;;;;;9.70;99.90;;;;;;4991543;28;19965;-74
2021/12/18 04:59:09;;;;;;;;;;;9.70;99.90;;;;;;4990931;28;19924;-75
2021/12/18 05:01:38;;;;;;;;;;;9.70;99.90;;;;;;4976880;28;20398;-75
2021/12/18 05:04:05;;;;;;;;;;;9.70;99.90;;;;;;4977982;28;20347;-75
2021/12/18 05:06:33;;;;;;;;;;;9.70;99.90;;;;;;4994516;28;20259;-75
2021/12/18 05:08:58;;;;;;;;;;;9.60;99.90;;;;;;4995122;28;19906;-76
2021/12/18 05:11:24;;;;;;;;;;;9.70;99.90;;;;;;4977485;28;19909;-75
2021/12/18 05:13:49;;;;;;;;;;;9.70;99.90;;;;;;4994836;28;20324;-75
2021/12/18 05:16:15;;;;;;;;;;;9.60;99.90;;;;;;4994606;28;20121;-75
2021/12/18 05:18:40;;;;;;;;;;;9.70;99.90;;;;;;4977364;28;19909;-75
2021/12/18 05:21:05;;;;;;;;;;;9.50;99.90;;;;;;4994517;28;20339;-75
2021/12/18 05:23:31;;;;;;;;;;;9.50;99.90;;;;;;4994840;28;20239;-74
2021/12/18 05:25:57;;;;;;;;;;;9.60;99.90;;;;;;4994320;28;19910;-74
2021/12/18 05:28:22;;;;;;;;;;;9.70;99.90;;;;;;4977047;28;20135;-74
2021/12/18 05:30:48;;;;;;;;;;;9.60;99.90;;;;;;4994300;28;19909;-74
2021/12/18 05:33:13;;;;;;;;;;;9.60;99.90;;;;;;4977035;28;19920;-74
2021/12/18 05:35:39;;;;;;;;;;;9.60;99.90;;;;;;4995030;28;20221;-74
2021/12/18 05:38:05;;;;;;;;;;;9.60;99.90;;;;;;4994479;28;19941;-74
2021/12/18 05:40:31;;;;;;;;;;;9.50;99.90;;;;;;4994039;28;19949;-74
2021/12/18 05:42:57;;;;;;;;;;;9.50;99.90;;;;;;4994251;28;19921;-75
2021/12/18 05:45:22;;;;;;;;;;;9.50;99.90;;;;;;4994354;28;19910;-75
2021/12/18 05:47:48;;;;;;;;;;;9.50;99.90;;;;;;4994625;28;19996;-75
2021/12/18 05:50:16;;;;;;;;;;;9.50;99.90;;;;;;4994129;28;19913;-75
2021/12/18 05:52:44;;;;;;;;;;;9.50;99.90;;;;;;4993888;28;20001;-75
2021/12/18 05:55:10;;;;;;;;;;;9.60;99.90;;;;;;4976705;28;20028;-75
2021/12/18 05:57:35;;;;;;;;;;;9.60;99.90;;;;;;4993666;28;20366;-75
2021/12/18 06:00:01;;;;;;;;;;;9.50;99.90;;;;;;4994188;28;20001;-74
2021/12/18 06:02:26;;;;;;;;;;;9.60;99.90;;;;;;4993737;28;19964;-75
2021/12/18 06:04:52;;;;;;;;;;;9.60;99.90;;;;;;4972726;28;19922;-75
2021/12/18 06:07:29;;;;;;;;;;;9.60;99.90;;;;;;4973207;28;20328;-75
2021/12/18 06:09:55;;;;;;;;;;;9.60;99.90;;;;;;4974197;28;20343;-75
2021/12/18 06:12:20;;;;;;;;;;;9.60;99.90;;;;;;4972813;28;19914;-75
2021/12/18 06:14:46;;;;;;;;;;;9.50;99.90;;;;;;4973381;28;19914;-74
2021/12/18 06:17:12;;;;;;;;;;;9.50;99.90;;;;;;4961738;28;19910;-73
2021/12/18 06:19:37;;;;;;;;;;;9.50;99.90;;;;;;4954362;28;19919;-74
2021/12/18 06:22:03;;;;;;;;;;;9.50;99.90;;;;;;4954408;28;19914;-72
2021/12/18 06:24:28;;;;;;;;;;;9.60;99.90;;;;;;4953265;28;19966;-73
2021/12/18 06:26:55;;;;;;;;;;;9.50;99.90;;;;;;4954722;29;19948;-73
2021/12/18 06:29:21;;;;;;;;;;;9.40;99.90;;;;;;4953522;28;19918;-73
2021/12/18 06:31:46;;;;;;;;;;;9.40;99.90;;;;;;4953891;28;19911;-73
2021/12/18 06:34:12;;;;;;;;;;;9.50;99.90;;;;;;4953483;28;19965;-73
2021/12/18 06:36:38;;;;;;;;;;;9.50;99.90;;;;;;4953925;28;19920;-74
2021/12/18 06:39:04;;;;;;;;;;;9.50;99.90;;;;;;4954569;28;20008;-76
2021/12/18 06:41:29;;;;;;;;;;;9.50;99.90;;;;;;4952870;28;19914;-76
2021/12/18 06:43:55;;;;;;;;;;;9.40;99.90;;;;;;4954172;28;19985;-76
2021/12/18 06:46:21;;;;;;;;;;;9.40;99.90;;;;;;4954139;28;19937;-76
2021/12/18 06:48:46;;;;;;;;;;;9.30;99.90;;;;;;4953293;28;19997;-75
2021/12/18 06:51:12;;;;;;;;;;;9.40;99.90;;;;;;4953881;28;19918;-75
2021/12/18 06:53:37;;;;;;;;;;;9.30;99.90;;;;;;4951908;29;19924;-76
2021/12/18 06:56:04;;;;;;;;;;;9.30;99.90;;;;;;4953541;28;19981;-75
2021/12/18 06:58:29;;;;;;;;;;;9.40;99.90;;;;;;4952777;28;19956;-76
2021/12/18 07:00:55;;;;;;;;;;;9.40;99.90;;;;;;4953532;28;20260;-75
2021/12/18 07:03:21;;;;;;;;;;;9.40;99.90;;;;;;4953201;28;19917;-74
2021/12/18 07:05:47;;;;;;;;;;;9.40;99.90;;;;;;4964796;28;19929;-76
2021/12/18 07:08:13;;;;;;;;;;;9.40;99.90;;;;;;4972702;28;19956;-77
2021/12/18 07:10:38;;;;;;;;;;;9.40;99.90;;;;;;4972690;28;20348;-76
2021/12/18 07:13:03;;;;;;;;;;;9.50;99.90;;;;;;4972281;28;19976;-75
2021/12/18 07:15:29;;;;;;;;;;;9.60;99.90;;;;;;4972979;28;19964;-76
2021/12/18 07:17:55;;;;;;;;;;;9.70;99.90;;;;;;4972788;28;19921;-76
2021/12/18 07:20:20;;;;;;;;;;;9.60;99.90;;;;;;4972625;28;19910;-76
2021/12/18 07:22:46;;;;;;;;;;;9.50;99.90;;;;;;4972277;28;19952;-75
2021/12/18 07:25:11;;;;;;;;;;;9.40;99.90;;;;;;4972389;28;20467;-75
2021/12/18 07:27:37;;;;;;;;;;;9.50;99.90;;;;;;4972349;28;20212;-76
2021/12/18 07:30:03;;;;;;;;;;;9.50;99.90;;;;;;4971724;28;19929;-75
2021/12/18 07:32:29;;;;;;;;;;;9.50;99.90;;;;;;4972133;28;20008;-74
2021/12/18 07:34:55;;;;;;;;;;;9.50;99.90;;;;;;4972254;28;19917;-78
2021/12/18 07:37:22;;;;;;;;;;;9.60;99.90;;;;;;4971094;28;19910;-75
2021/12/18 07:39:48;;;;;;;;;;;9.50;99.90;;;;;;4971872;28;19909;-75
2021/12/18 07:42:13;;;;;;;;;;;9.50;99.90;;;;;;4972086;28;19916;-75
2021/12/18 07:44:40;;;;;;;;;;;9.50;99.90;;;;;;4972260;28;19902;-74
2021/12/18 07:47:06;;;;;;;;;;;9.50;99.90;;;;;;4955458;28;20015;-74
2021/12/18 07:49:31;;;;;;;;;;;9.50;99.90;;;;;;4952943;28;20247;-75
2021/12/18 07:52:01;;;;;;;;;;;9.60;99.90;;;;;;4952301;28;19914;-75
2021/12/18 07:54:27;;;;;;;;;;;9.60;99.90;;;;;;4952416;29;19910;-75
2021/12/18 07:56:53;;;;;;;;;;;9.50;99.90;;;;;;4953306;29;20349;-74
2021/12/18 07:59:18;;;;;;;;;;;9.50;99.90;;;;;;4952792;28;19921;-74
2021/12/18 08:01:44;;;;;;;;;;;9.50;99.90;;;;;;4952316;29;19912;-75
2021/12/18 08:04:09;;;;;;;;;;;9.40;99.90;;;;;;4935110;29;19926;-74
2021/12/18 08:06:35;;;;;;;;;;;9.50;99.90;;;;;;4951958;29;20021;-74
2021/12/18 08:09:01;;;;;;;;;;;9.50;99.90;;;;;;4935446;29;19907;-75
2021/12/18 08:11:26;;;;;;;;;;;9.60;99.90;;;;;;4952308;29;19938;-75
2021/12/18 08:13:51;;;;;;;;;;;9.40;99.90;;;;;;4951157;28;20136;-75
2021/12/18 08:16:17;;;;;;;;;;;9.40;99.90;;;;;;4952130;28;20384;-75
2021/12/18 08:18:42;;;;;;;;;;;9.40;99.90;;;;;;4935270;29;19969;-75
2021/12/18 08:21:08;;;;;;;;;;;9.60;99.90;;;;;;4951940;29;19999;-75
2021/12/18 08:23:33;;;;;;;;;;;9.50;99.90;;;;;;4951454;29;20260;-75
2021/12/18 08:25:59;;;;;;;;;;;9.60;99.90;;;;;;4952149;28;19914;-75
2021/12/18 08:28:24;;;;;;;;;;;9.40;99.90;;;;;;4950902;28;19921;-75
2021/12/18 08:30:50;;;;;;;;;;;9.50;99.90;;;;;;4952105;28;19910;-75
2021/12/18 08:33:15;;;;;;;;;;;9.50;99.90;;;;;;4952213;28;19906;-75
2021/12/18 08:35:41;;;;;;;;;;;9.60;99.90;;;;;;4953705;28;19974;-75
2021/12/18 08:38:06;;;;;;;;;;;9.60;99.90;;;;;;4955591;28;19910;-75
2021/12/18 08:40:33;;;;;;;;;;;9.50;99.90;;;;;;4954658;28;19910;-75
2021/12/18 08:42:59;;;;;;;;;;;9.40;99.90;;;;;;4955819;29;19917;-75
2021/12/18 08:45:24;;;;;;;;;;;9.50;99.90;;;;;;4955813;28;20209;-75
2021/12/18 08:47:50;;;;;;;;;;;9.40;99.90;;;;;;4956120;29;19930;-75
2021/12/18 08:50:17;;;;;;;;;;;9.50;99.90;;;;;;4955629;28;20544;-75
2021/12/18 08:52:46;;;;;;;;;;;9.50;99.90;;;;;;4955724;28;20266;-75
2021/12/18 08:55:12;;;;;;;;;;;9.60;99.90;;;;;;4955355;28;20264;-75
2021/12/18 08:57:38;;;;;;;;;;;9.50;99.90;;;;;;4955206;28;19918;-75
2021/12/18 09:00:05;;;;;;;;;;;9.50;99.90;;;;;;4956174;29;19957;-75
2021/12/18 09:02:30;;;;;;;;;;;9.60;99.90;;;;;;4955431;29;20423;-75
2021/12/18 09:04:56;;;;;;;;;;;9.40;99.90;;;;;;4950988;28;19963;-75
2021/12/18 09:07:22;;;;;;;;;;;9.50;99.90;;;;;;4936050;28;20001;-75
2021/12/18 09:09:48;;;;;;;;;;;9.50;99.90;;;;;;4936156;28;19997;-75
2021/12/18 09:12:13;;;;;;;;;;;9.40;99.90;;;;;;4935928;28;20021;-75
2021/12/18 09:14:39;;;;;;;;;;;9.50;99.90;;;;;;4936579;29;20006;-75
2021/12/18 09:17:05;;;;;;;;;;;9.60;99.90;;;;;;4935785;28;19914;-74
2021/12/18 09:19:31;;;;;;;;;;;9.50;99.90;;;;;;4936249;28;20337;-75
2021/12/18 09:21:56;;;;;;;;;;;9.50;99.90;;;;;;4935803;28;19911;-74
2021/12/18 09:24:22;;;;;;;;;;;9.60;99.90;;;;;;4935799;28;19911;-75
2021/12/18 09:26:49;;;;;;;;;;;9.60;99.90;;;;;;4951114;29;19911;-76
2021/12/18 09:29:14;;;;;;;;;;;9.50;99.90;;;;;;4935800;28;19958;-75
2021/12/18 09:31:40;;;;;;;;;;;9.50;99.90;;;;;;4950594;28;19973;-74
2021/12/18 09:34:05;;;;;;;;;;;9.50;99.90;;;;;;4935803;29;20070;-73
2021/12/18 09:36:31;;;;;;;;;;;9.60;99.90;;;;;;4935877;28;19922;-74
2021/12/18 09:38:56;;;;;;;;;;;9.60;99.90;;;;;;4936428;29;19907;-74
2021/12/18 09:41:23;;;;;;;;;;;9.40;99.90;;;;;;4934590;29;19910;-74
2021/12/18 09:43:49;;;;;;;;;;;9.30;99.90;;;;;;4935724;28;19911;-75
2021/12/18 09:46:15;;;;;;;;;;;9.40;99.90;;;;;;4935196;29;19926;-75
2021/12/18 09:48:41;;;;;;;;;;;9.40;99.90;;;;;;4935625;28;19940;-75
2021/12/18 09:51:11;;;;;;;;;;;9.50;99.90;;;;;;4935737;28;20563;-74
2021/12/18 09:53:40;;;;;;;;;;;9.50;99.90;;;;;;4935808;29;19903;-75
2021/12/18 09:56:06;;;;;;;;;;;9.40;99.90;;;;;;4935622;28;19919;-75
2021/12/18 09:58:32;;;;;;;;;;;9.40;99.90;;;;;;4935355;28;20313;-76
2021/12/18 10:00:57;;;;;;;;;;;9.20;99.90;;;;;;4935212;29;19911;-74
2021/12/18 10:03:40;;;;;;;;;;;9.30;99.90;;;;;;4935233;28;20070;-74
2021/12/18 10:06:25;;;;;;;;;;;9.40;99.90;;;;;;4949308;28;19918;-74
2021/12/18 10:08:51;;;;;;;;;;;9.30;99.90;;;;;;4955347;29;20001;-74
2021/12/18 10:11:18;;;;;;;;;;;9.50;99.90;;;;;;4954715;28;20131;-74
2021/12/18 10:13:50;;;;;;;;;;;9.40;99.90;;;;;;4954511;28;19992;-74
2021/12/18 10:16:16;;;;;;;;;;;9.40;99.90;;;;;;4954470;28;19914;-74
2021/12/18 10:18:41;;;;;;;;;;;9.40;99.90;;;;;;4954553;28;20503;-74
2021/12/18 10:21:08;;;;;;;;;;;9.40;99.90;;;;;;4954105;28;20368;-75
2021/12/18 10:23:34;;;;;;;;;;;9.30;99.90;;;;;;4954587;29;19914;-75
2021/12/18 10:25:59;;;;;;;;;;;9.20;99.90;;;;;;4953104;28;20044;-75
2021/12/18 10:28:29;;;;;;;;;;;9.20;99.90;;;;;;4953061;28;19980;-75
2021/12/18 10:30:56;;;;;;;;;;;9.40;99.90;;;;;;4952889;28;20032;-75
2021/12/18 10:33:27;;;;;;;;;;;9.40;99.90;;;;;;4953875;28;20058;-75
2021/12/18 10:35:57;;;;;;;;;;;9.50;99.90;;;;;;4953470;28;19957;-74
2021/12/18 10:38:45;;;;;;;;;;;9.60;99.90;;;;;;4953795;28;20371;-74
2021/12/18 10:41:21;;;;;;;;;;;9.60;99.90;;;;;;4953811;28;19911;-75
2021/12/18 10:43:58;;;;;;;;;;;9.60;99.90;;;;;;4953647;28;19981;-74
2021/12/18 10:46:24;;;;;;;;;;;9.60;99.90;;;;;;4936290;29;19957;-74
2021/12/18 10:49:00;;;;;;;;;;;9.50;99.90;;;;;;4953511;29;19977;-75
2021/12/18 10:51:27;;;;;;;;;;;9.60;99.90;;;;;;4953164;28;19959;-74
2021/12/18 10:53:58;;;;;;;;;;;9.60;99.90;;;;;;4953988;29;19938;-75
2021/12/18 10:56:31;;;;;;;;;;;9.50;99.90;;;;;;4953407;28;19918;-75
2021/12/18 10:58:56;;;;;;;;;;;9.30;99.90;;;;;;4952959;28;20005;-75
2021/12/18 11:01:22;;;;;;;;;;;9.30;99.90;;;;;;4952171;28;20006;-76
2021/12/18 11:03:48;;;;;;;;;;;9.30;99.90;;;;;;4953215;28;19911;-74
2021/12/18 11:06:13;;;;;;;;;;;9.30;99.90;;;;;;4952469;28;19922;-74
2021/12/18 11:08:58;;;;;;;;;;;9.30;99.90;;;;;;4952253;29;19973;-75
2021/12/18 11:14:07;;;;;;;;;;;9.40;99.90;;;;;;4952998;28;19934;-75
2021/12/18 11:16:35;;;;;;;;;;;9.50;99.90;;;;;;4952796;28;20013;-75
2021/12/18 11:19:02;;;;;;;;;;;9.50;99.90;;;;;;4952133;28;20316;-75
2021/12/18 11:21:29;;;;;;;;;;;9.40;99.90;;;;;;4935857;28;19910;-75
2021/12/18 11:24:06;;;;;;;;;;;9.50;99.90;;;;;;4953293;29;19949;-76
2021/12/18 11:26:35;;;;;;;;;;;9.60;99.90;;;;;;4935930;29;19910;-75
2021/12/18 11:29:04;;;;;;;;;;;9.40;99.90;;;;;;4936358;29;19966;-76
2021/12/18 11:31:30;;;;;;;;;;;9.40;99.90;;;;;;4951863;28;20311;-76
2021/12/18 11:33:57;;;;;;;;;;;9.30;99.90;;;;;;4952558;28;20313;-75
2021/12/18 11:36:22;;;;;;;;;;;9.40;99.90;;;;;;4951379;29;20312;-75
2021/12/18 11:38:51;;;;;;;;;;;9.40;99.90;;;;;;4952974;29;19907;-75
2021/12/18 11:41:18;;;;;;;;;;;9.30;99.90;;;;;;4952494;28;19910;-75
2021/12/18 11:43:46;;;;;;;;;;;9.30;99.90;;;;;;4935934;29;20014;-74
2021/12/18 11:46:33;;;;;;;;;;;9.40;99.90;;;;;;4952604;28;19910;-75
2021/12/18 11:49:00;;;;;;;;;;;9.40;99.90;;;;;;4952713;28;20347;-74
2021/12/18 11:51:26;;;;;;;;;;;9.40;99.90;;;;;;4952605;28;19919;-75
2021/12/18 11:53:51;;;;;;;;;;;9.30;99.90;;;;;;4952984;29;19918;-75
2021/12/18 11:56:17;;;;;;;;;;;9.40;99.90;;;;;;4952263;28;19914;-74
2021/12/18 11:58:44;;;;;;;;;;;9.40;99.90;;;;;;4951356;28;19914;-75
2021/12/18 12:01:16;;;;;;;;;;;9.40;99.90;;;;;;4952720;29;19921;-75
2021/12/18 12:03:55;;;;;;;;;;;9.40;99.90;;;;;;4951235;28;19917;-75
2021/12/18 12:06:37;;;;;;;;;;;9.20;99.90;;;;;;4935061;29;19919;-74
2021/12/18 12:09:44;;;;;;;;;;;9.20;99.90;;;;;;4952518;28;19961;-75
2021/12/18 12:12:13;;;;;;;;;;;9.30;99.90;;;;;;4952231;29;20535;-75
2021/12/18 12:14:39;;;;;;;;;;;9.40;99.90;;;;;;4952809;29;19906;-75
2021/12/18 12:17:17;;;;;;;;;;;9.40;99.90;;;;;;4934952;28;20324;-76
2021/12/18 12:19:44;;;;;;;;;;;9.40;99.90;;;;;;4952228;28;19910;-74
2021/12/18 12:22:29;;;;;;;;;;;9.40;99.90;;;;;;4951885;28;20013;-75
2021/12/18 12:24:56;;;;;;;;;;;9.50;99.90;;;;;;4935232;29;19914;-74
2021/12/18 12:27:28;;;;;;;;;;;9.50;99.90;;;;;;4951746;29;19970;-75
2021/12/18 12:29:54;;;;;;;;;;;9.60;99.90;;;;;;4952189;29;19925;-74
2021/12/18 12:32:20;;;;;;;;;;;9.50;99.90;;;;;;4952038;29;19918;-75
2021/12/18 12:34:59;;;;;;;;;;;9.50;99.90;;;;;;4952283;28;19910;-75
2021/12/18 12:37:41;;;;;;;;;;;9.60;99.90;;;;;;4952203;28;20335;-74
2021/12/18 12:40:31;;;;;;;;;;;9.40;99.90;;;;;;4952066;28;20412;-74
2021/12/18 12:43:09;;;;;;;;;;;9.50;99.90;;;;;;4935407;29;19944;-75
2021/12/18 12:45:40;;;;;;;;;;;9.50;99.90;;;;;;4952205;28;19973;-75
2021/12/18 12:48:06;;;;;;;;;;;9.60;99.90;;;;;;4952153;28;19910;-75
2021/12/18 12:50:32;;;;;;;;;;;9.50;99.90;;;;;;4935283;29;19965;-74
2021/12/18 12:52:58;;;;;;;;;;;9.60;99.90;;;;;;4951697;28;20049;-75
2021/12/18 12:55:26;;;;;;;;;;;9.70;99.90;;;;;;4951711;28;19961;-75
2021/12/18 12:57:53;;;;;;;;;;;9.80;99.90;;;;;;4951962;28;20360;-74
2021/12/18 13:00:21;;;;;;;;;;;9.80;99.90;;;;;;4952000;29;19914;-75
2021/12/18 13:02:49;;;;;;;;;;;9.70;99.90;;;;;;4952213;29;19986;-75
2021/12/18 13:05:15;;;;;;;;;;;9.70;99.90;;;;;;4950268;28;19926;-76
2021/12/18 13:07:45;;;;;;;;;;;9.70;99.90;;;;;;4951956;28;19992;-75
2021/12/18 13:10:10;;;;;;;;;;;9.60;99.90;;;;;;4951881;28;19925;-75
2021/12/18 13:12:51;;;;;;;;;;;9.70;99.90;;;;;;4951812;28;20013;-74
2021/12/18 13:15:16;;;;;;;;;;;9.80;99.90;;;;;;4950466;28;19910;-74
2021/12/18 13:17:42;;;;;;;;;;;9.70;99.90;;;;;;4952130;29;20339;-74
2021/12/18 13:20:08;;;;;;;;;;;9.70;99.90;;;;;;4934667;29;20001;-75
2021/12/18 13:22:33;;;;;;;;;;;9.90;99.90;;;;;;4954211;28;19945;-75
2021/12/18 13:25:09;;;;;;;;;;;9.80;99.90;;;;;;4954751;28;20327;-75
2021/12/18 13:27:36;;;;;;;;;;;9.80;99.90;;;;;;4955153;28;20242;-75
2021/12/18 13:30:08;;;;;;;;;;;9.70;99.90;;;;;;4955563;29;20353;-75
2021/12/18 13:32:34;;;;;;;;;;;9.80;99.90;;;;;;4955523;29;19915;-76
2021/12/18 13:35:00;;;;;;;;;;;9.70;99.90;;;;;;4953900;29;20415;-75
2021/12/18 13:37:25;;;;;;;;;;;9.70;99.90;;;;;;4954832;28;19915;-76
2021/12/18 13:39:51;;;;;;;;;;;9.70;99.90;;;;;;4954504;29;20349;-75
2021/12/18 13:42:18;;;;;;;;;;;9.70;99.90;;;;;;4954915;29;19913;-75
2021/12/18 13:44:47;;;;;;;;;;;9.70;99.90;;;;;;4955298;29;19915;-76
2021/12/18 13:47:47;;;;;;;;;;;9.70;99.90;;;;;;4953381;28;20249;-75
2021/12/18 13:50:17;;;;;;;;;;;9.70;99.90;;;;;;4947521;29;19919;-76
2021/12/18 13:52:44;;;;;;;;;;;9.70;99.90;;;;;;4954638;28;19937;-75
2021/12/18 13:55:22;;;;;;;;;;;9.70;99.90;;;;;;4954463;28;19915;-76
2021/12/18 13:58:01;;;;;;;;;;;9.70;99.90;;;;;;4954316;28;19921;-75
2021/12/18 14:00:27;;;;;;;;;;;9.80;99.90;;;;;;4954270;28;19921;-76
2021/12/18 14:02:52;;;;;;;;;;;9.90;99.90;;;;;;4954575;28;19929;-75
2021/12/18 14:05:18;;;;;;;;;;;9.80;99.90;;;;;;4954063;28;20005;-74
2021/12/18 14:07:44;;;;;;;;;;;9.90;99.90;;;;;;4954382;28;19992;-75
2021/12/18 14:10:10;;;;;;;;;;;9.90;99.90;;;;;;4953129;28;19910;-75
2021/12/18 14:12:35;;;;;;;;;;;9.70;99.90;;;;;;4936824;29;19915;-75
2021/12/18 14:15:01;;;;;;;;;;;9.70;99.90;;;;;;4953473;29;19910;-74
2021/12/18 14:17:27;;;;;;;;;;;9.80;99.90;;;;;;4953902;29;19942;-75
2021/12/18 14:19:53;;;;;;;;;;;9.90;99.90;;;;;;4953064;28;20336;-75
2021/12/18 14:22:22;;;;;;;;;;;9.90;99.90;;;;;;4953984;28;20322;-75
2021/12/18 14:24:57;;;;;;;;;;;9.80;99.90;;;;;;4953898;28;20008;-74
2021/12/18 14:27:23;;;;;;;;;;;9.90;99.90;;;;;;4953807;29;19906;-75
2021/12/18 14:29:50;;;;;;;;;;;9.80;99.90;;;;;;4954840;29;19907;-75
2021/12/18 14:32:16;;;;;;;;;;;9.80;99.90;;;;;;4953600;28;19911;-75
2021/12/18 14:34:43;;;;;;;;;;;9.90;99.90;;;;;;4953210;28;19989;-75
2021/12/18 14:37:15;;;;;;;;;;;9.90;99.90;;;;;;4953876;29;20406;-75
2021/12/18 14:39:44;;;;;;;;;;;9.90;99.90;;;;;;4954058;28;19910;-75
2021/12/18 14:42:11;;;;;;;;;;;10.00;99.90;;;;;;4952729;28;19910;-75
2021/12/18 14:44:41;;;;;;;;;;;10.00;99.90;;;;;;4954244;29;19950;-74
2021/12/18 14:47:07;;;;;;;;;;;10.00;99.90;;;;;;4936860;29;19910;-75
2021/12/18 14:49:33;;;;;;;;;;;10.00;99.90;;;;;;4952415;28;19918;-74
2021/12/18 14:52:03;;;;;;;;;;;10.00;99.90;;;;;;4953320;28;20001;-74
2021/12/18 14:54:29;;;;;;;;;;;10.00;99.90;;;;;;4953198;28;19910;-75
2021/12/18 14:57:13;;;;;;;;;;;10.10;99.90;;;;;;4953774;29;19973;-74
2021/12/18 14:59:39;;;;;;;;;;;10.20;99.90;;;;;;4953559;29;19977;-74
2021/12/18 15:02:04;;;;;;;;;;;10.00;99.90;;;;;;4953474;29;19989;-75
2021/12/18 15:04:30;;;;;;;;;;;9.90;99.90;;;;;;4952838;28;19937;-75
2021/12/18 15:06:56;;;;;;;;;;;10.00;99.90;;;;;;4953496;29;20264;-76
2021/12/18 15:09:24;;;;;;;;;;;10.00;99.90;;;;;;4953066;28;19952;-75
2021/12/18 15:11:50;;;;;;;;;;;10.00;99.90;;;;;;4953412;29;19906;-74